createdAt,value
2019-05-04T00:00:29.188Z,995.47
2019-05-04T00:01:29.160Z,995.45
2019-05-04T00:02:29.166Z,995.42
2019-05-04T00:03:29.126Z,995.43
2019-05-04T00:04:29.109Z,995.44
2019-05-04T00:05:29.084Z,995.38
2019-05-04T00:06:29.077Z,995.39
2019-05-04T00:07:29.083Z,995.40
2019-05-04T00:08:29.037Z,995.38
2019-05-04T00:09:29.015Z,995.37
2019-05-04T00:10:28.998Z,995.38
2019-05-04T00:11:28.987Z,995.36
2019-05-04T00:12:28.984Z,995.36
2019-05-04T00:13:28.949Z,995.31
2019-05-04T00:14:28.922Z,995.32
2019-05-04T00:15:28.900Z,995.32
2019-05-04T00:16:28.887Z,995.32
2019-05-04T00:17:28.898Z,995.28
2019-05-04T00:18:28.852Z,995.24
2019-05-04T00:19:28.833Z,995.22
2019-05-04T00:20:28.818Z,995.23
2019-05-04T00:21:28.799Z,995.22
2019-05-04T00:22:28.800Z,995.19
2019-05-04T00:23:28.760Z,995.16
2019-05-04T00:24:28.750Z,995.18
2019-05-04T00:25:28.720Z,995.12
2019-05-04T00:26:28.697Z,995.10
2019-05-04T00:27:28.710Z,995.09
2019-05-04T00:28:28.663Z,995.12
2019-05-04T00:29:28.648Z,995.10
2019-05-04T00:30:28.638Z,995.08
2019-05-04T00:31:28.614Z,995.04
2019-05-04T00:32:28.724Z,995.05
2019-05-04T00:33:28.582Z,995.00
2019-05-04T00:34:28.552Z,995.03
2019-05-04T00:35:28.537Z,994.98
2019-05-04T00:36:28.524Z,995.02
2019-05-04T00:37:28.500Z,994.98
2019-05-04T00:38:28.504Z,994.94
2019-05-04T00:39:28.471Z,994.95
2019-05-04T00:40:28.453Z,994.97
2019-05-04T00:41:28.422Z,994.90
2019-05-04T00:42:28.413Z,994.93
2019-05-04T00:43:28.534Z,994.89
2019-05-04T00:44:28.379Z,994.88
2019-05-04T00:45:28.349Z,994.86
2019-05-04T00:46:28.342Z,994.87
2019-05-04T00:47:28.315Z,994.87
2019-05-04T00:48:28.303Z,994.89
2019-05-04T00:49:28.280Z,994.89
2019-05-04T00:50:28.262Z,994.91
2019-05-04T00:51:28.249Z,994.89
2019-05-04T00:52:28.238Z,994.89
2019-05-04T00:53:28.232Z,994.84
2019-05-04T00:54:28.213Z,994.89
2019-05-04T00:55:28.178Z,994.86
2019-05-04T00:56:28.156Z,994.81
2019-05-04T00:57:28.133Z,994.86
2019-05-04T00:58:28.122Z,994.82
2019-05-04T00:59:28.123Z,994.80
2019-05-04T01:00:28.111Z,994.81
2019-05-04T01:01:28.059Z,994.88
2019-05-04T01:02:28.035Z,994.86
2019-05-04T01:03:28.028Z,994.85
2019-05-04T01:04:28.065Z,994.83
2019-05-04T01:05:27.982Z,994.80
2019-05-04T01:06:27.966Z,994.80
2019-05-04T01:07:27.952Z,994.82
2019-05-04T01:08:27.937Z,994.84
2019-05-04T01:09:27.916Z,994.79
2019-05-04T01:10:27.919Z,994.81
2019-05-04T01:11:27.882Z,994.76
2019-05-04T01:12:27.862Z,994.82
2019-05-04T01:13:27.838Z,994.76
2019-05-04T01:14:27.820Z,994.76
2019-05-04T01:15:27.831Z,994.74
2019-05-04T01:16:27.794Z,994.70
2019-05-04T01:17:27.769Z,994.73
2019-05-04T01:18:27.751Z,994.72
2019-05-04T01:19:27.739Z,994.74
2019-05-04T01:20:27.735Z,994.77
2019-05-04T01:21:27.693Z,994.75
2019-05-04T01:22:27.675Z,994.75
2019-05-04T01:23:27.653Z,994.73
2019-05-04T01:24:27.644Z,994.75
2019-05-04T01:25:27.650Z,994.72
2019-05-04T01:26:27.608Z,994.73
2019-05-04T01:27:27.588Z,994.68
2019-05-04T01:28:27.571Z,994.67
2019-05-04T01:29:27.556Z,994.62
2019-05-04T01:30:27.557Z,994.64
2019-05-04T01:31:27.510Z,994.63
2019-05-04T01:32:27.497Z,994.63
2019-05-04T01:33:27.474Z,994.61
2019-05-04T01:34:27.458Z,994.61
2019-05-04T01:35:27.462Z,994.62
2019-05-04T01:36:27.453Z,994.60
2019-05-04T01:37:31.981Z,994.53
2019-05-04T01:38:27.378Z,994.56
2019-05-04T01:39:27.355Z,994.54
2019-05-04T01:40:27.375Z,994.58
2019-05-04T01:41:27.334Z,994.55
2019-05-04T01:42:27.311Z,994.57
2019-05-04T01:43:27.290Z,994.53
2019-05-04T01:44:27.271Z,994.50
2019-05-04T01:45:27.255Z,994.52
2019-05-04T01:46:27.237Z,994.51
2019-05-04T01:47:27.221Z,994.52
2019-05-04T01:48:27.195Z,994.54
2019-05-04T01:49:27.178Z,994.51
2019-05-04T01:50:27.161Z,994.53
2019-05-04T01:51:27.145Z,994.45
2019-05-04T01:52:27.125Z,994.49
2019-05-04T01:53:27.106Z,994.48
2019-05-04T01:54:27.084Z,994.52
2019-05-04T01:55:27.068Z,994.53
2019-05-04T01:56:27.053Z,994.51
2019-05-04T01:57:27.062Z,994.47
2019-05-04T01:58:27.009Z,994.47
2019-05-04T01:59:27.000Z,994.50
2019-05-04T02:00:26.969Z,994.51
2019-05-04T02:01:26.987Z,994.50
2019-05-04T02:02:26.937Z,994.53
2019-05-04T02:03:26.953Z,994.52
2019-05-04T02:04:26.903Z,994.52
2019-05-04T02:05:26.886Z,994.57
2019-05-04T02:06:26.861Z,994.55
2019-05-04T02:07:26.851Z,994.58
2019-05-04T02:08:26.856Z,994.54
2019-05-04T02:09:26.806Z,994.55
2019-05-04T02:10:26.797Z,994.54
2019-05-04T02:11:26.775Z,994.55
2019-05-04T02:12:26.752Z,994.55
2019-05-04T02:13:26.758Z,994.53
2019-05-04T02:14:26.715Z,994.50
2019-05-04T02:15:26.702Z,994.51
2019-05-04T02:16:26.676Z,994.47
2019-05-04T02:17:26.802Z,994.45
2019-05-04T02:18:26.652Z,994.44
2019-05-04T02:19:28.092Z,994.43
2019-05-04T02:20:26.615Z,994.44
2019-05-04T02:21:26.594Z,994.42
2019-05-04T02:22:26.578Z,994.39
2019-05-04T02:23:26.575Z,994.39
2019-05-04T02:24:26.532Z,994.36
2019-05-04T02:25:26.521Z,994.33
2019-05-04T02:26:26.499Z,994.35
2019-05-04T02:27:26.476Z,994.31
2019-05-04T02:28:26.467Z,994.34
2019-05-04T02:29:26.470Z,994.37
2019-05-04T02:30:26.595Z,994.37
2019-05-04T02:31:26.574Z,994.36
2019-05-04T02:32:26.387Z,994.34
2019-05-04T02:33:26.374Z,994.36
2019-05-04T02:34:26.689Z,994.33
2019-05-04T02:35:26.751Z,994.33
2019-05-04T02:36:26.308Z,994.33
2019-05-04T02:37:27.699Z,994.27
2019-05-04T02:38:27.055Z,994.30
2019-05-04T02:39:26.402Z,994.30
2019-05-04T02:40:32.968Z,994.27
2019-05-04T02:41:26.220Z,994.31
2019-05-04T02:42:26.199Z,994.36
2019-05-04T02:43:26.192Z,994.34
2019-05-04T02:44:26.741Z,994.35
2019-05-04T02:45:26.667Z,994.32
2019-05-04T02:46:26.126Z,994.30
2019-05-04T02:47:26.386Z,994.30
2019-05-04T02:48:26.087Z,994.29
2019-05-04T02:49:26.832Z,994.26
2019-05-04T02:50:26.086Z,994.24
2019-05-04T02:51:26.038Z,994.23
2019-05-04T02:52:28.762Z,994.24
2019-05-04T02:53:26.132Z,994.22
2019-05-04T02:54:26.020Z,994.23
2019-05-04T02:55:26.114Z,994.18
2019-05-04T02:56:26.074Z,994.17
2019-05-04T02:57:26.152Z,994.12
2019-05-04T02:58:33.973Z,994.12
2019-05-04T02:59:25.886Z,994.10
2019-05-04T03:00:26.519Z,994.11
2019-05-04T03:01:25.861Z,994.09
2019-05-04T03:02:25.844Z,994.10
2019-05-04T03:03:25.810Z,994.09
2019-05-04T03:04:27.732Z,994.05
2019-05-04T03:05:26.348Z,994.04
2019-05-04T03:06:25.846Z,994.07
2019-05-04T03:07:26.344Z,994.04
2019-05-04T03:08:33.536Z,994.05
2019-05-04T03:09:25.701Z,994.01
2019-05-04T03:10:26.564Z,994.03
2019-05-04T03:11:25.864Z,994.03
2019-05-04T03:12:26.117Z,993.99
2019-05-04T03:13:25.800Z,994.01
2019-05-04T03:14:26.290Z,993.99
2019-05-04T03:15:26.582Z,994.04
2019-05-04T03:16:40.549Z,994.02
2019-05-04T03:17:25.767Z,993.98
2019-05-04T03:18:26.056Z,993.95
2019-05-04T03:19:25.529Z,993.94
2019-05-04T03:20:25.969Z,993.92
2019-05-04T03:21:25.652Z,993.95
2019-05-04T03:22:26.142Z,993.94
2019-05-04T03:23:25.985Z,993.92
2019-05-04T03:24:25.422Z,993.92
2019-05-04T03:25:26.010Z,993.86
2019-05-04T03:26:26.264Z,993.84
2019-05-04T03:27:25.393Z,993.84
2019-05-04T03:28:25.582Z,993.79
2019-05-04T03:29:26.300Z,993.81
2019-05-04T03:30:28.110Z,993.78
2019-05-04T03:31:27.780Z,993.80
2019-05-04T03:32:29.511Z,993.76
2019-05-04T03:33:28.567Z,993.75
2019-05-04T03:34:45.448Z,993.79
2019-05-04T03:35:34.538Z,993.81
2019-05-04T03:36:32.171Z,993.80
2019-05-04T03:37:25.548Z,993.80
2019-05-04T03:38:27.684Z,993.79
2019-05-04T03:39:26.111Z,993.76
2019-05-04T03:40:26.138Z,993.73
2019-05-04T03:41:25.803Z,993.77
2019-05-04T03:42:26.416Z,993.75
2019-05-04T03:43:25.922Z,993.75
2019-05-04T03:44:25.578Z,993.78
2019-05-04T03:45:25.807Z,993.79
2019-05-04T03:46:26.270Z,993.81
2019-05-04T03:47:25.259Z,993.79
2019-05-04T03:48:25.165Z,993.84
2019-05-04T03:49:25.893Z,993.80
2019-05-04T03:50:26.468Z,993.78
2019-05-04T03:51:25.949Z,993.82
2019-05-04T03:52:26.005Z,993.76
2019-05-04T03:53:25.490Z,993.80
2019-05-04T03:54:25.587Z,993.78
2019-05-04T03:55:26.322Z,993.82
2019-05-04T03:56:25.531Z,993.83
2019-05-04T03:57:24.954Z,993.78
2019-05-04T03:58:25.324Z,993.78
2019-05-04T03:59:25.469Z,993.76
2019-05-04T04:00:25.734Z,993.77
2019-05-04T04:01:26.113Z,993.78
2019-05-04T04:02:26.001Z,993.80
2019-05-04T04:03:26.328Z,993.84
2019-05-04T04:04:26.088Z,993.83
2019-05-04T04:05:25.709Z,993.81
2019-05-04T04:06:25.410Z,993.80
2019-05-04T04:07:25.523Z,993.79
2019-05-04T04:08:25.004Z,993.74
2019-05-04T04:09:25.543Z,993.70
2019-05-04T04:10:25.736Z,993.71
2019-05-04T04:11:25.501Z,993.71
2019-05-04T04:12:25.241Z,993.74
2019-05-04T04:13:26.108Z,993.74
2019-05-04T04:14:25.713Z,993.74
2019-05-04T04:15:26.482Z,993.72
2019-05-04T04:16:26.151Z,993.69
2019-05-04T04:17:25.329Z,993.71
2019-05-04T04:18:25.247Z,993.73
2019-05-04T04:19:25.672Z,993.77
2019-05-04T04:20:25.734Z,993.74
2019-05-04T04:21:26.363Z,993.71
2019-05-04T04:22:25.874Z,993.70
2019-05-04T04:23:25.106Z,993.68
2019-05-04T04:24:25.526Z,993.72
2019-05-04T04:25:25.800Z,993.72
2019-05-04T04:26:25.893Z,993.71
2019-05-04T04:27:25.747Z,993.73
2019-05-04T04:28:28.801Z,993.72
2019-05-04T04:29:26.485Z,993.74
2019-05-04T04:30:25.954Z,993.76
2019-05-04T04:31:26.163Z,993.76
2019-05-04T04:32:25.673Z,993.78
2019-05-04T04:33:25.442Z,993.79
2019-05-04T04:34:26.004Z,993.80
2019-05-04T04:35:26.515Z,993.85
2019-05-04T04:36:25.887Z,993.79
2019-05-04T04:37:25.290Z,993.81
2019-05-04T04:38:26.220Z,993.81
2019-05-04T04:39:33.569Z,993.81
2019-05-04T04:40:25.805Z,993.83
2019-05-04T04:41:25.421Z,993.84
2019-05-04T04:42:25.237Z,993.80
2019-05-04T04:43:25.639Z,993.81
2019-05-04T04:44:26.480Z,993.81
2019-05-04T04:45:25.659Z,993.81
2019-05-04T04:46:25.617Z,993.81
2019-05-04T04:47:25.645Z,993.84
2019-05-04T04:48:28.995Z,993.85
2019-05-04T04:49:25.705Z,993.80
2019-05-04T04:50:25.436Z,993.86
2019-05-04T04:51:26.401Z,993.88
2019-05-04T04:52:25.956Z,993.91
2019-05-04T04:53:25.663Z,993.89
2019-05-04T04:54:25.979Z,993.88
2019-05-04T04:55:27.606Z,993.89
2019-05-04T04:56:25.995Z,993.88
2019-05-04T04:57:25.874Z,993.89
2019-05-04T04:58:25.815Z,993.90
2019-05-04T04:59:25.395Z,993.88
2019-05-04T05:00:25.557Z,993.90
2019-05-04T05:01:25.464Z,993.88
2019-05-04T05:02:41.477Z,993.89
2019-05-04T05:03:25.789Z,993.90
2019-05-04T05:04:25.663Z,993.86
2019-05-04T05:05:25.707Z,993.86
2019-05-04T05:06:25.814Z,993.87
2019-05-04T05:07:25.379Z,993.88
2019-05-04T05:08:24.945Z,993.94
2019-05-04T05:09:26.582Z,993.89
2019-05-04T05:10:25.589Z,993.95
2019-05-04T05:11:25.683Z,993.93
2019-05-04T05:12:25.572Z,993.94
2019-05-04T05:13:25.031Z,994.01
2019-05-04T05:14:24.712Z,993.97
2019-05-04T05:15:24.831Z,993.95
2019-05-04T05:16:25.221Z,993.97
2019-05-04T05:17:24.174Z,993.95
2019-05-04T05:18:24.314Z,993.94
2019-05-04T05:19:24.366Z,993.96
2019-05-04T05:20:25.034Z,993.96
2019-05-04T05:21:25.073Z,993.94
2019-05-04T05:22:24.804Z,993.94
2019-05-04T05:23:24.615Z,993.97
2019-05-04T05:24:24.997Z,993.95
2019-05-04T05:25:24.770Z,993.95
2019-05-04T05:26:24.708Z,993.97
2019-05-04T05:27:25.200Z,993.95
2019-05-04T05:28:25.075Z,993.93
2019-05-04T05:29:25.150Z,993.94
2019-05-04T05:30:24.817Z,993.95
2019-05-04T05:31:24.149Z,993.95
2019-05-04T05:32:25.163Z,994.01
2019-05-04T05:33:24.831Z,993.98
2019-05-04T05:34:24.822Z,993.96
2019-05-04T05:35:24.783Z,993.98
2019-05-04T05:36:24.317Z,993.91
2019-05-04T05:37:25.102Z,993.98
2019-05-04T05:38:24.473Z,994.00
2019-05-04T05:39:24.959Z,993.99
2019-05-04T05:40:24.456Z,994.01
2019-05-04T05:41:24.084Z,994.00
2019-05-04T05:42:24.876Z,994.02
2019-05-04T05:43:24.519Z,993.99
2019-05-04T05:44:24.887Z,994.03
2019-05-04T05:45:24.529Z,994.04
2019-05-04T05:46:24.387Z,994.02
2019-05-04T05:47:24.212Z,994.04
2019-05-04T05:48:24.769Z,994.07
2019-05-04T05:49:24.580Z,994.05
2019-05-04T05:50:24.286Z,994.09
2019-05-04T05:51:24.566Z,994.09
2019-05-04T05:52:24.404Z,994.11
2019-05-04T05:53:24.376Z,994.08
2019-05-04T05:54:24.527Z,994.15
2019-05-04T05:55:27.322Z,994.10
2019-05-04T05:56:24.588Z,994.14
2019-05-04T05:57:22.591Z,994.13
2019-05-04T05:58:26.119Z,994.13
2019-05-04T05:59:25.739Z,994.13
2019-05-04T06:00:24.746Z,994.14
2019-05-04T06:01:25.614Z,994.17
2019-05-04T06:02:22.497Z,994.15
2019-05-04T06:03:23.966Z,994.12
2019-05-04T06:04:24.365Z,994.15
2019-05-04T06:05:23.534Z,994.13
2019-05-04T06:06:22.439Z,994.15
2019-05-04T06:07:27.569Z,994.09
2019-05-04T06:08:22.384Z,994.13
2019-05-04T06:09:25.167Z,994.16
2019-05-04T06:10:27.743Z,994.10
2019-05-04T06:11:24.494Z,994.07
2019-05-04T06:12:22.309Z,994.08
2019-05-04T06:13:24.357Z,994.01
2019-05-04T06:14:22.277Z,994.02
2019-05-04T06:15:24.419Z,993.97
2019-05-04T06:16:22.266Z,994.06
2019-05-04T06:17:22.220Z,994.08
2019-05-04T06:18:22.196Z,994.11
2019-05-04T06:19:22.180Z,994.10
2019-05-04T06:20:24.230Z,994.11
2019-05-04T06:21:22.177Z,994.06
2019-05-04T06:22:24.005Z,994.11
2019-05-04T06:23:24.436Z,994.04
2019-05-04T06:24:22.084Z,994.08
2019-05-04T06:25:22.073Z,994.05
2019-05-04T06:26:26.480Z,994.04
2019-05-04T06:27:22.101Z,994.02
2019-05-04T06:28:25.222Z,994.02
2019-05-04T06:29:21.995Z,994.02
2019-05-04T06:30:26.373Z,993.99
2019-05-04T06:31:21.960Z,994.05
2019-05-04T06:32:24.846Z,993.96
2019-05-04T06:33:21.923Z,993.99
2019-05-04T06:34:25.894Z,993.99
2019-05-04T06:35:21.889Z,994.00
2019-05-04T06:36:21.864Z,994.03
2019-05-04T06:37:25.069Z,994.04
2019-05-04T06:38:21.830Z,993.97
2019-05-04T06:39:26.249Z,993.93
2019-05-04T06:40:35.295Z,993.96
2019-05-04T06:41:25.815Z,994.02
2019-05-04T06:42:21.781Z,993.96
2019-05-04T06:43:21.734Z,994.05
2019-05-04T06:44:24.876Z,994.00
2019-05-04T06:45:21.706Z,994.01
2019-05-04T06:46:21.682Z,993.96
2019-05-04T06:47:21.717Z,993.97
2019-05-04T06:48:26.073Z,993.91
2019-05-04T06:49:21.635Z,993.93
2019-05-04T06:50:26.023Z,993.98
2019-05-04T06:51:21.595Z,993.96
2019-05-04T06:52:26.162Z,993.93
2019-05-04T06:53:32.424Z,994.00
2019-05-04T06:54:24.561Z,993.93
2019-05-04T06:55:21.511Z,993.97
2019-05-04T06:56:27.884Z,993.96
2019-05-04T06:57:22.370Z,993.93
2019-05-04T06:58:21.465Z,993.95
2019-05-04T06:59:23.343Z,993.97
2019-05-04T07:00:21.435Z,993.98
2019-05-04T07:01:21.411Z,994.02
2019-05-04T07:02:21.390Z,993.97
2019-05-04T07:03:21.391Z,994.01
2019-05-04T07:04:21.346Z,993.98
2019-05-04T07:05:21.326Z,993.98
2019-05-04T07:06:21.306Z,993.95
2019-05-04T07:07:22.180Z,993.97
2019-05-04T07:08:29.973Z,993.98
2019-05-04T07:09:25.113Z,994.01
2019-05-04T07:10:21.242Z,993.99
2019-05-04T07:11:29.101Z,993.95
2019-05-04T07:12:25.919Z,993.98
2019-05-04T07:13:27.486Z,993.98
2019-05-04T07:14:21.199Z,994.07
2019-05-04T07:15:21.142Z,993.99
2019-05-04T07:16:21.129Z,994.06
2019-05-04T07:17:21.103Z,994.01
2019-05-04T07:18:21.115Z,993.99
2019-05-04T07:19:22.628Z,994.01
2019-05-04T07:20:21.079Z,994.00
2019-05-04T07:21:23.690Z,993.97
2019-05-04T07:22:21.016Z,993.94
2019-05-04T07:23:21.002Z,993.95
2019-05-04T07:24:20.979Z,993.95
2019-05-04T07:25:20.990Z,993.97
2019-05-04T07:26:20.945Z,993.99
2019-05-04T07:27:20.924Z,994.00
2019-05-04T07:28:20.903Z,994.00
2019-05-04T07:29:20.919Z,994.00
2019-05-04T07:30:20.870Z,994.00
2019-05-04T07:31:20.877Z,994.00
2019-05-04T07:32:20.827Z,993.95
2019-05-04T07:33:20.821Z,993.96
2019-05-04T07:34:20.797Z,994.01
2019-05-04T07:35:26.207Z,994.00
2019-05-04T07:36:20.787Z,994.05
2019-05-04T07:37:24.885Z,994.04
2019-05-04T07:38:20.723Z,994.10
2019-05-04T07:39:20.702Z,994.08
2019-05-04T07:40:27.553Z,994.06
2019-05-04T07:41:39.782Z,994.10
2019-05-04T07:42:29.308Z,994.00
2019-05-04T07:43:23.101Z,993.97
2019-05-04T07:44:20.608Z,993.98
2019-05-04T07:45:26.214Z,994.00
2019-05-04T07:46:20.612Z,994.01
2019-05-04T07:47:27.237Z,994.01
2019-05-04T07:48:20.541Z,994.03
2019-05-04T07:49:27.203Z,994.07
2019-05-04T07:50:20.502Z,994.02
2019-05-04T07:51:20.511Z,994.04
2019-05-04T07:52:27.162Z,993.98
2019-05-04T07:53:20.453Z,994.03
2019-05-04T07:54:25.124Z,993.92
2019-05-04T07:55:20.422Z,993.96
2019-05-04T07:56:20.424Z,994.02
2019-05-04T07:57:24.900Z,993.96
2019-05-04T07:58:20.360Z,993.97
2019-05-04T07:59:27.507Z,993.96
2019-05-04T08:00:20.333Z,993.94
2019-05-04T08:01:24.979Z,993.92
2019-05-04T08:02:20.295Z,993.91
2019-05-04T08:03:27.424Z,993.86
2019-05-04T08:04:20.282Z,993.88
2019-05-04T08:05:26.376Z,993.84
2019-05-04T08:06:20.223Z,993.85
2019-05-04T08:07:20.211Z,993.88
2019-05-04T08:08:20.235Z,993.89
2019-05-04T08:09:20.927Z,993.91
2019-05-04T08:10:20.685Z,993.90
2019-05-04T08:11:20.140Z,993.89
2019-05-04T08:12:20.120Z,993.85
2019-05-04T08:13:20.519Z,993.79
2019-05-04T08:14:20.115Z,993.90
2019-05-04T08:15:20.066Z,993.80
2019-05-04T08:16:20.052Z,993.81
2019-05-04T08:17:20.031Z,993.81
2019-05-04T08:18:21.228Z,993.88
2019-05-04T08:19:19.991Z,993.93
2019-05-04T08:20:21.226Z,993.93
2019-05-04T08:21:19.952Z,993.92
2019-05-04T08:22:20.523Z,993.94
2019-05-04T08:23:19.922Z,993.93
2019-05-04T08:24:27.376Z,993.92
2019-05-04T08:25:19.896Z,993.98
2019-05-04T08:26:24.320Z,993.93
2019-05-04T08:27:19.852Z,993.93
2019-05-04T08:28:19.829Z,993.99
2019-05-04T08:29:23.202Z,993.96
2019-05-04T08:30:19.793Z,993.96
2019-05-04T08:31:24.388Z,993.91
2019-05-04T08:32:19.761Z,993.88
2019-05-04T08:33:20.040Z,993.93
2019-05-04T08:34:19.730Z,993.92
2019-05-04T08:35:20.338Z,993.88
2019-05-04T08:36:19.698Z,993.88
2019-05-04T08:37:22.131Z,993.94
2019-05-04T08:38:19.653Z,993.86
2019-05-04T08:39:20.188Z,993.88
2019-05-04T08:40:19.641Z,993.88
2019-05-04T08:41:19.598Z,993.89
2019-05-04T08:42:27.298Z,993.97
2019-05-04T08:43:19.562Z,993.92
2019-05-04T08:44:19.544Z,993.93
2019-05-04T08:45:20.784Z,993.93
2019-05-04T08:46:19.508Z,993.87
2019-05-04T08:47:19.500Z,993.86
2019-05-04T08:48:19.480Z,993.87
2019-05-04T08:49:29.075Z,993.89
2019-05-04T08:50:19.440Z,993.92
2019-05-04T08:51:19.967Z,993.94
2019-05-04T08:52:21.807Z,993.97
2019-05-04T08:53:19.413Z,993.91
2019-05-04T08:54:20.773Z,993.94
2019-05-04T08:55:19.352Z,993.95
2019-05-04T08:56:22.586Z,993.96
2019-05-04T08:57:19.321Z,993.87
2019-05-04T08:58:25.094Z,993.87
2019-05-04T08:59:19.296Z,993.92
2019-05-04T09:00:21.437Z,993.93
2019-05-04T09:01:19.252Z,993.94
2019-05-04T09:02:19.241Z,993.92
2019-05-04T09:03:20.736Z,993.87
2019-05-04T09:04:25.255Z,993.93
2019-05-04T09:05:28.069Z,993.94
2019-05-04T09:06:30.289Z,993.91
2019-05-04T09:07:23.302Z,993.91
2019-05-04T09:08:19.173Z,993.94
2019-05-04T09:09:20.846Z,993.93
2019-05-04T09:10:19.140Z,994.03
2019-05-04T09:11:19.386Z,994.00
2019-05-04T09:12:27.181Z,994.08
2019-05-04T09:13:19.066Z,994.08
2019-05-04T09:14:29.668Z,993.99
2019-05-04T09:15:19.097Z,993.95
2019-05-04T09:16:19.018Z,993.92
2019-05-04T09:17:19.967Z,994.05
2019-05-04T09:18:18.984Z,993.92
2019-05-04T09:19:19.444Z,993.94
2019-05-04T09:20:18.967Z,993.96
2019-05-04T09:21:19.680Z,993.95
2019-05-04T09:22:23.634Z,993.97
2019-05-04T09:23:19.246Z,994.10
2019-05-04T09:24:18.906Z,994.15
2019-05-04T09:25:19.719Z,994.00
2019-05-04T09:26:18.878Z,994.00
2019-05-04T09:27:20.113Z,993.95
2019-05-04T09:28:18.864Z,993.96
2019-05-04T09:29:22.684Z,993.97
2019-05-04T09:30:20.657Z,993.89
2019-05-04T09:31:18.803Z,993.86
2019-05-04T09:32:31.075Z,993.94
2019-05-04T09:33:29.736Z,993.92
2019-05-04T09:34:19.212Z,993.93
2019-05-04T09:35:18.789Z,993.93
2019-05-04T09:36:18.717Z,993.95
2019-05-04T09:37:18.700Z,993.95
2019-05-04T09:38:23.830Z,993.98
2019-05-04T09:39:22.771Z,994.17
2019-05-04T09:40:18.646Z,994.17
2019-05-04T09:41:18.766Z,994.19
2019-05-04T09:42:30.750Z,994.21
2019-05-04T09:43:21.440Z,994.16
2019-05-04T09:44:18.587Z,994.19
2019-05-04T09:45:19.429Z,994.14
2019-05-04T09:46:18.561Z,994.12
2019-05-04T09:47:20.684Z,994.11
2019-05-04T09:48:18.527Z,994.12
2019-05-04T09:49:19.977Z,993.96
2019-05-04T09:50:20.784Z,993.95
2019-05-04T09:51:26.444Z,993.94
2019-05-04T09:52:18.476Z,993.96
2019-05-04T09:53:22.199Z,993.99
2019-05-04T09:54:18.450Z,994.01
2019-05-04T09:55:18.443Z,994.13
2019-05-04T09:56:20.281Z,994.06
2019-05-04T09:57:18.422Z,994.15
2019-05-04T09:58:28.990Z,994.07
2019-05-04T09:59:18.392Z,994.15
2019-05-04T10:00:18.372Z,994.16
2019-05-04T10:01:18.393Z,994.06
2019-05-04T10:02:18.342Z,994.20
2019-05-04T10:03:18.332Z,994.15
2019-05-04T10:04:18.317Z,994.25
2019-05-04T10:05:25.477Z,994.26
2019-05-04T10:06:29.719Z,994.43
2019-05-04T10:07:18.274Z,994.21
2019-05-04T10:08:18.264Z,994.36
2019-05-04T10:09:18.252Z,994.37
2019-05-04T10:10:18.240Z,994.28
2019-05-04T10:11:18.225Z,994.39
2019-05-04T10:12:18.218Z,994.36
2019-05-04T10:13:18.191Z,994.23
2019-05-04T10:14:18.209Z,994.28
2019-05-04T10:15:18.170Z,994.30
2019-05-04T10:16:18.183Z,994.23
2019-05-04T10:17:18.164Z,994.31
2019-05-04T10:18:18.132Z,994.41
2019-05-04T10:19:18.115Z,994.41
2019-05-04T10:20:18.212Z,994.29
2019-05-04T10:21:18.086Z,994.30
2019-05-04T10:22:18.086Z,994.42
2019-05-04T10:23:18.056Z,994.31
2019-05-04T10:24:18.041Z,994.36
2019-05-04T10:25:18.023Z,994.40
2019-05-04T10:26:18.017Z,994.42
2019-05-04T10:27:18.022Z,994.49
2019-05-04T10:28:17.969Z,994.44
2019-05-04T10:29:17.963Z,994.38
2019-05-04T10:30:17.943Z,994.49
2019-05-04T10:31:17.927Z,994.45
2019-05-04T10:32:17.938Z,994.47
2019-05-04T10:33:17.894Z,994.55
2019-05-04T10:34:17.876Z,994.44
2019-05-04T10:35:17.860Z,994.44
2019-05-04T10:36:17.835Z,994.41
2019-05-04T10:37:17.859Z,994.38
2019-05-04T10:38:17.809Z,994.34
2019-05-04T10:39:17.794Z,994.33
2019-05-04T10:40:17.769Z,994.36
2019-05-04T10:41:17.753Z,994.31
2019-05-04T10:42:17.771Z,994.31
2019-05-04T10:43:17.727Z,994.40
2019-05-04T10:44:17.703Z,994.24
2019-05-04T10:45:19.130Z,994.28
2019-05-04T10:46:17.671Z,994.45
2019-05-04T10:47:17.676Z,994.47
2019-05-04T10:48:17.634Z,994.54
2019-05-04T10:49:17.615Z,994.41
2019-05-04T10:50:17.607Z,994.42
2019-05-04T10:51:17.585Z,994.39
2019-05-04T10:52:17.607Z,994.35
2019-05-04T10:53:17.561Z,994.15
2019-05-04T10:54:17.534Z,994.13
2019-05-04T10:55:17.517Z,994.14
2019-05-04T10:56:17.502Z,994.17
2019-05-04T10:57:17.492Z,994.16
2019-05-04T10:58:17.472Z,994.26
2019-05-04T10:59:18.880Z,994.31
2019-05-04T11:00:17.444Z,994.22
2019-05-04T11:01:17.427Z,994.31
2019-05-04T11:02:17.446Z,994.42
2019-05-04T11:03:17.424Z,994.32
2019-05-04T11:04:17.375Z,994.71
2019-05-04T11:05:17.383Z,994.40
2019-05-04T11:06:17.346Z,994.51
2019-05-04T11:07:17.462Z,994.50
2019-05-04T11:08:17.321Z,994.44
2019-05-04T11:09:17.298Z,994.58
2019-05-04T11:10:17.286Z,994.53
2019-05-04T11:11:23.011Z,994.47
2019-05-04T11:12:17.244Z,995.13
2019-05-04T11:13:20.228Z,995.04
2019-05-04T11:14:17.255Z,994.48
2019-05-04T11:15:17.203Z,995.19
2019-05-04T11:16:17.200Z,995.14
2019-05-04T11:17:17.172Z,994.66
2019-05-04T11:18:17.220Z,994.76
2019-05-04T11:19:17.150Z,994.62
2019-05-04T11:20:17.133Z,994.86
2019-05-04T11:21:17.123Z,994.64
2019-05-04T11:22:17.102Z,994.57
2019-05-04T11:23:17.101Z,994.55
2019-05-04T11:24:17.106Z,994.64
2019-05-04T11:25:17.061Z,994.92
2019-05-04T11:26:17.048Z,994.57
2019-05-04T11:27:17.037Z,994.58
2019-05-04T11:28:17.046Z,994.64
2019-05-04T11:29:17.026Z,994.84
2019-05-04T11:30:16.998Z,995.53
2019-05-04T11:31:16.975Z,994.98
2019-05-04T11:32:16.962Z,995.08
2019-05-04T11:33:16.974Z,995.20
2019-05-04T11:34:16.944Z,995.19
2019-05-04T11:35:16.926Z,995.24
2019-05-04T11:36:16.907Z,995.17
2019-05-04T11:37:16.891Z,995.24
2019-05-04T11:38:16.876Z,995.31
2019-05-04T11:39:16.882Z,995.38
2019-05-04T11:40:16.838Z,995.40
2019-05-04T11:41:16.833Z,995.44
2019-05-04T11:42:16.811Z,995.33
2019-05-04T11:43:28.975Z,995.36
2019-05-04T11:44:16.779Z,995.35
2019-05-04T11:45:16.763Z,995.31
2019-05-04T11:46:16.749Z,995.25
2019-05-04T11:47:16.723Z,995.36
2019-05-04T11:48:16.732Z,995.39
2019-05-04T11:49:16.684Z,995.31
2019-05-04T11:50:16.675Z,995.36
2019-05-04T11:51:16.698Z,995.37
2019-05-04T11:52:16.710Z,995.35
2019-05-04T11:53:18.775Z,995.35
2019-05-04T11:54:16.686Z,995.32
2019-05-04T11:55:16.629Z,995.36
2019-05-04T11:56:17.004Z,995.29
2019-05-04T11:57:16.610Z,995.29
2019-05-04T11:58:16.537Z,995.21
2019-05-04T11:59:16.582Z,995.23
2019-05-04T12:00:16.494Z,995.17
2019-05-04T12:01:16.514Z,995.18
2019-05-04T12:02:16.503Z,995.10
2019-05-04T12:03:16.694Z,995.11
2019-05-04T12:04:16.421Z,995.10
2019-05-04T12:05:16.405Z,995.12
2019-05-04T12:06:16.413Z,995.14
2019-05-04T12:07:16.378Z,995.13
2019-05-04T12:08:16.381Z,995.10
2019-05-04T12:09:16.340Z,995.09
2019-05-04T12:10:16.314Z,995.13
2019-05-04T12:11:16.321Z,995.06
2019-05-04T12:12:16.281Z,995.27
2019-05-04T12:13:16.266Z,995.71
2019-05-04T12:14:16.240Z,995.33
2019-05-04T12:15:16.226Z,995.21
2019-05-04T12:16:16.349Z,995.19
2019-05-04T12:17:16.215Z,995.18
2019-05-04T12:18:16.175Z,995.12
2019-05-04T12:19:16.152Z,995.51
2019-05-04T12:20:16.140Z,995.20
2019-05-04T12:21:18.919Z,995.45
2019-05-04T12:22:16.117Z,995.21
2019-05-04T12:23:16.115Z,995.27
2019-05-04T12:24:16.074Z,995.34
2019-05-04T12:25:16.057Z,995.77
2019-05-04T12:26:16.043Z,996.04
2019-05-04T12:27:17.809Z,996.08
2019-05-04T12:28:16.006Z,996.18